createdAt,value
2023-02-03T00:01:53.833Z,0.90
2023-02-03T00:04:21.808Z,0.80
2023-02-03T00:06:49.627Z,0.57
2023-02-03T00:09:17.640Z,0.70
2023-02-03T00:11:45.540Z,0.80
2023-02-03T00:14:13.398Z,0.73
2023-02-03T00:16:41.267Z,0.77
2023-02-03T00:19:09.061Z,0.90
2023-02-03T00:21:36.879Z,1.17
2023-02-03T00:24:04.629Z,1.20
2023-02-03T00:26:32.577Z,1.63
2023-02-03T00:29:01.280Z,1.63
2023-02-03T00:31:29.219Z,1.00
2023-02-03T00:33:57.701Z,1.30
2023-02-03T00:36:26.072Z,0.77
2023-02-03T00:38:54.228Z,1.10
2023-02-03T00:41:22.213Z,1.40
2023-02-03T00:43:50.444Z,1.73
2023-02-03T00:46:18.258Z,1.30
2023-02-03T00:48:46.112Z,1.30
2023-02-03T00:51:14.007Z,0.90
2023-02-03T00:53:41.815Z,1.00
2023-02-03T00:56:13.722Z,1.20
2023-02-03T00:58:41.952Z,1.03
2023-02-03T01:01:09.892Z,0.87
2023-02-03T01:03:37.730Z,0.90
2023-02-03T01:06:19.866Z,0.87
2023-02-03T01:08:47.779Z,0.80
2023-02-03T01:11:18.463Z,0.70
2023-02-03T01:13:46.483Z,0.90
2023-02-03T01:16:15.816Z,0.80
2023-02-03T01:18:43.801Z,1.07
2023-02-03T01:21:17.268Z,0.80
2023-02-03T01:23:45.211Z,0.80
2023-02-03T01:26:14.928Z,0.87
2023-02-03T01:28:42.681Z,0.60
2023-02-03T01:31:11.547Z,0.93
2023-02-03T01:33:41.994Z,1.13
2023-02-03T01:36:10.553Z,0.90
2023-02-03T01:38:38.445Z,0.80
2023-02-03T01:41:07.582Z,0.70
2023-02-03T01:43:40.163Z,0.80
2023-02-03T01:46:26.779Z,1.77
2023-02-03T01:49:03.033Z,0.63
2023-02-03T01:51:30.822Z,0.87
2023-02-03T01:53:58.648Z,0.87
2023-02-03T01:56:27.196Z,0.87
2023-02-03T01:58:55.073Z,0.90
2023-02-03T02:01:22.882Z,0.87
2023-02-03T02:03:55.007Z,0.97
2023-02-03T02:06:22.760Z,0.73
2023-02-03T02:08:52.033Z,0.70
2023-02-03T02:11:21.474Z,0.90
2023-02-03T02:13:50.038Z,1.00
2023-02-03T02:16:23.912Z,0.80
2023-02-03T02:19:00.813Z,1.23
2023-02-03T02:21:51.279Z,1.27
2023-02-03T02:24:47.027Z,0.80
2023-02-03T02:27:17.251Z,1.07
2023-02-03T02:30:35.629Z,1.03
2023-02-03T02:33:44.678Z,0.70
2023-02-03T02:36:30.598Z,1.10
2023-02-03T02:39:10.148Z,1.10
2023-02-03T02:41:46.002Z,1.00
2023-02-03T02:44:25.846Z,1.57
2023-02-03T02:46:58.481Z,0.97
2023-02-03T02:49:44.925Z,0.80
2023-02-03T02:52:12.697Z,0.97
2023-02-03T02:54:41.853Z,1.10
2023-02-03T02:57:11.401Z,1.00
2023-02-03T02:59:39.174Z,0.90
2023-02-03T03:02:07.026Z,1.20
2023-02-03T03:04:34.976Z,0.80
2023-02-03T03:07:08.369Z,1.10
2023-02-03T03:10:03.696Z,0.90
2023-02-03T03:12:33.509Z,0.97
2023-02-03T03:15:03.823Z,1.10
2023-02-03T03:17:33.799Z,1.13
2023-02-03T03:20:03.815Z,1.03
2023-02-03T03:22:36.449Z,0.90
2023-02-03T03:25:23.428Z,0.83
2023-02-03T03:27:53.644Z,0.87
2023-02-03T03:30:30.289Z,0.83
2023-02-03T03:32:59.595Z,0.90
2023-02-03T03:35:32.438Z,0.80
2023-02-03T03:38:03.056Z,1.30
2023-02-03T03:40:36.209Z,1.10
2023-02-03T03:43:07.592Z,0.90
2023-02-03T03:45:58.806Z,0.80
2023-02-03T03:48:35.947Z,0.77
2023-02-03T03:51:06.101Z,0.70
2023-02-03T03:53:34.092Z,0.90
2023-02-03T03:56:02.229Z,0.90
2023-02-03T03:58:32.168Z,0.80
2023-02-03T04:01:02.748Z,0.90
2023-02-03T04:03:49.482Z,1.27
2023-02-03T04:06:17.243Z,0.83
2023-02-03T04:08:45.017Z,0.67
2023-02-03T04:11:12.778Z,1.00
2023-02-03T04:13:40.547Z,1.30
2023-02-03T04:16:08.424Z,1.00
2023-02-03T04:18:36.235Z,1.20
2023-02-03T04:21:03.996Z,0.87
2023-02-03T04:23:31.733Z,0.80
2023-02-03T04:26:02.291Z,0.73
2023-02-03T04:28:30.062Z,1.00
2023-02-03T04:31:01.803Z,0.73
2023-02-03T04:33:29.644Z,0.70
2023-02-03T04:35:57.488Z,1.20
2023-02-03T04:38:25.306Z,0.80
2023-02-03T04:40:53.104Z,0.80
2023-02-03T04:43:20.896Z,0.70
2023-02-03T04:45:48.729Z,0.93
2023-02-03T04:48:16.548Z,0.80
2023-02-03T04:50:44.296Z,0.90
2023-02-03T04:53:12.735Z,0.70
2023-02-03T04:55:41.516Z,0.57
2023-02-03T04:58:10.217Z,0.80
2023-02-03T05:00:38.146Z,1.10
2023-02-03T05:03:06.014Z,1.07
2023-02-03T05:05:33.713Z,0.80
2023-02-03T05:08:01.605Z,1.10
2023-02-03T05:10:29.646Z,0.97
2023-02-03T05:12:57.578Z,0.70
2023-02-03T05:15:25.379Z,0.80
2023-02-03T05:17:54.204Z,1.03
2023-02-03T05:20:22.147Z,0.70
2023-02-03T05:22:49.987Z,1.03
2023-02-03T05:25:17.894Z,1.00
2023-02-03T05:27:45.830Z,0.93
2023-02-03T05:30:13.954Z,0.90
2023-02-03T05:32:41.774Z,0.80
2023-02-03T05:35:09.694Z,0.90
2023-02-03T05:37:37.516Z,0.80
2023-02-03T05:40:26.742Z,0.87
2023-02-03T05:42:54.821Z,0.83
2023-02-03T05:45:23.073Z,0.83
2023-02-03T05:47:50.790Z,0.90
2023-02-03T05:50:18.604Z,1.00
2023-02-03T05:52:46.365Z,0.80
2023-02-03T05:55:14.095Z,0.83
2023-02-03T05:57:41.909Z,0.70
2023-02-03T06:00:10.303Z,1.20
2023-02-03T06:02:38.066Z,1.13
2023-02-03T06:05:06.034Z,1.40
2023-02-03T06:07:33.923Z,1.07
2023-02-03T06:10:01.715Z,0.77
2023-02-03T06:12:29.642Z,1.03
2023-02-03T06:14:57.511Z,0.87
2023-02-03T06:17:25.369Z,0.83
2023-02-03T06:19:53.230Z,0.90
2023-02-03T06:22:20.975Z,1.30
2023-02-03T06:24:49.621Z,0.80
2023-02-03T06:27:17.394Z,1.10
2023-02-03T06:29:45.204Z,0.90
2023-02-03T06:32:13.201Z,1.13
2023-02-03T06:34:41.046Z,0.80
2023-02-03T06:37:08.964Z,1.10
2023-02-03T06:39:36.763Z,1.10
2023-02-03T06:42:04.554Z,1.30
2023-02-03T06:44:32.495Z,0.90
2023-02-03T06:47:00.343Z,1.00
2023-02-03T06:49:28.136Z,1.00
2023-02-03T06:51:56.055Z,0.80
2023-02-03T06:54:23.989Z,1.17
2023-02-03T06:56:51.759Z,1.27
2023-02-03T06:59:19.743Z,1.50
2023-02-03T07:01:47.653Z,1.03
2023-02-03T07:04:15.534Z,0.90
2023-02-03T07:06:43.413Z,1.10
2023-02-03T07:09:11.366Z,1.20
2023-02-03T07:11:39.263Z,1.37
2023-02-03T07:14:07.145Z,1.33
2023-02-03T07:16:35.610Z,1.10
2023-02-03T07:19:03.465Z,0.90
2023-02-03T07:21:31.541Z,1.23
2023-02-03T07:23:59.443Z,1.03
2023-02-03T07:26:27.777Z,0.80
2023-02-03T07:28:55.784Z,1.37
2023-02-03T07:31:24.137Z,1.40
2023-02-03T07:33:52.180Z,0.97
2023-02-03T07:36:20.174Z,1.07
2023-02-03T07:38:48.015Z,1.33
2023-02-03T07:41:19.179Z,0.97
2023-02-03T07:43:47.047Z,1.00
2023-02-03T07:46:14.815Z,1.20
2023-02-03T07:48:42.645Z,1.20
2023-02-03T07:51:10.428Z,1.10
2023-02-03T07:53:38.396Z,1.10
2023-02-03T07:56:06.758Z,1.40
2023-02-03T07:58:34.736Z,1.20
2023-02-03T08:01:02.555Z,1.40
2023-02-03T08:03:30.396Z,1.40
2023-02-03T08:05:58.212Z,1.10
2023-02-03T08:08:25.980Z,1.67
2023-02-03T08:10:55.952Z,1.20
2023-02-03T08:13:23.800Z,0.90
2023-02-03T08:15:51.738Z,1.20
2023-02-03T08:18:19.500Z,1.20
2023-02-03T08:20:50.315Z,0.70
2023-02-03T08:23:18.106Z,1.00
2023-02-03T08:25:46.135Z,1.20
2023-02-03T08:28:14.176Z,1.00
2023-02-03T08:30:42.135Z,1.20
2023-02-03T08:33:09.960Z,1.33
2023-02-03T08:35:38.123Z,1.10
2023-02-03T08:38:10.683Z,1.30
2023-02-03T08:40:38.482Z,1.10
2023-02-03T08:43:06.263Z,0.83
2023-02-03T08:45:34.475Z,0.80
2023-02-03T08:48:02.535Z,1.70
2023-02-03T08:50:30.848Z,1.20
2023-02-03T08:52:59.001Z,1.00
2023-02-03T08:55:26.877Z,1.30
2023-02-03T08:57:56.198Z,1.17
2023-02-03T09:00:24.549Z,0.80
2023-02-03T09:02:52.558Z,1.40
2023-02-03T09:05:20.501Z,1.03
2023-02-03T09:07:48.511Z,0.90
2023-02-03T09:10:16.985Z,1.10
2023-02-03T09:12:44.921Z,1.13
2023-02-03T09:15:12.843Z,1.00
2023-02-03T09:17:40.718Z,0.90
2023-02-03T09:20:09.181Z,0.97
2023-02-03T09:22:37.101Z,0.80
2023-02-03T09:25:08.249Z,0.80
2023-02-03T09:27:36.140Z,1.00
2023-02-03T09:30:08.823Z,0.80
2023-02-03T09:32:36.668Z,0.90
2023-02-03T09:35:04.867Z,0.80
2023-02-03T09:37:33.136Z,0.87
2023-02-03T09:40:01.230Z,0.93
2023-02-03T09:42:47.088Z,1.13
2023-02-03T09:45:32.078Z,0.80
2023-02-03T09:48:04.706Z,0.87
2023-02-03T09:50:34.532Z,1.10
2023-02-03T09:53:28.895Z,1.13
2023-02-03T09:55:56.837Z,0.90
2023-02-03T09:58:24.795Z,1.00
2023-02-03T10:01:03.288Z,0.67
2023-02-03T10:03:41.981Z,1.20
2023-02-03T10:06:29.386Z,1.00
2023-02-03T10:09:03.080Z,1.17
2023-02-03T10:11:51.690Z,1.00
2023-02-03T10:14:32.512Z,0.60
2023-02-03T10:17:13.487Z,1.83
2023-02-03T10:19:58.227Z,0.90
2023-02-03T10:22:29.339Z,0.70
2023-02-03T10:25:26.150Z,0.80
2023-02-03T10:27:56.202Z,0.90
2023-02-03T10:30:29.124Z,0.73
2023-02-03T10:33:13.129Z,0.97
2023-02-03T10:35:48.226Z,0.70
2023-02-03T10:38:21.019Z,0.80
2023-02-03T10:40:48.944Z,0.83
2023-02-03T10:43:35.456Z,0.70
2023-02-03T10:46:03.252Z,0.80
2023-02-03T10:48:31.214Z,1.07
2023-02-03T10:50:58.991Z,0.77
2023-02-03T10:53:29.491Z,0.87
2023-02-03T10:56:14.403Z,0.73
2023-02-03T10:58:51.682Z,1.10
2023-02-03T11:01:21.793Z,0.83
2023-02-03T11:04:00.138Z,0.50
2023-02-03T11:06:28.281Z,0.63
2023-02-03T11:08:56.140Z,1.10
2023-02-03T11:11:27.791Z,0.70
2023-02-03T11:14:12.432Z,0.90
2023-02-03T11:16:41.647Z,0.80
2023-02-03T11:19:20.507Z,0.90
2023-02-03T11:21:54.384Z,0.70
2023-02-03T11:24:29.879Z,0.80
2023-02-03T11:26:59.821Z,0.70
2023-02-03T11:29:31.971Z,1.20
2023-02-03T11:32:01.820Z,1.47
2023-02-03T11:34:34.519Z,0.80
2023-02-03T11:37:28.524Z,0.60
2023-02-03T11:40:08.855Z,1.00
2023-02-03T11:42:38.541Z,0.80
2023-02-03T11:45:35.764Z,0.67
2023-02-03T11:48:22.539Z,0.90
2023-02-03T11:50:51.718Z,0.73
2023-02-03T11:53:57.913Z,0.93
2023-02-03T11:56:50.084Z,0.77
2023-02-03T11:59:47.230Z,0.73
2023-02-03T12:02:39.132Z,0.50
2023-02-03T12:05:33.060Z,0.60
2023-02-03T12:08:09.523Z,0.70
2023-02-03T12:10:57.767Z,0.70
2023-02-03T12:13:48.944Z,0.60
2023-02-03T12:16:28.953Z,0.60
2023-02-03T12:19:16.961Z,0.43
2023-02-03T12:21:44.595Z,0.60
2023-02-03T12:24:31.226Z,0.60
2023-02-03T12:27:23.557Z,0.80
2023-02-03T12:29:58.211Z,0.63
2023-02-03T12:32:39.645Z,0.87
2023-02-03T12:35:28.068Z,0.70
2023-02-03T12:38:13.119Z,0.60
2023-02-03T12:40:47.245Z,0.70
2023-02-03T12:43:33.401Z,0.60
2023-02-03T12:46:25.300Z,0.70
2023-02-03T12:49:02.134Z,0.80
2023-02-03T12:51:44.057Z,0.70
2023-02-03T12:54:38.992Z,0.70
2023-02-03T12:57:18.723Z,0.80
2023-02-03T13:00:14.297Z,0.50
2023-02-03T13:03:12.006Z,0.97
2023-02-03T13:05:58.656Z,0.87
2023-02-03T13:08:40.671Z,0.90
2023-02-03T13:11:21.103Z,0.60
2023-02-03T13:13:51.487Z,1.00
2023-02-03T13:16:21.831Z,0.60
2023-02-03T13:18:53.582Z,0.70
2023-02-03T13:21:21.413Z,0.70
2023-02-03T13:23:49.654Z,0.80
2023-02-03T13:26:29.196Z,0.40
2023-02-03T13:29:04.307Z,0.50
2023-02-03T13:31:44.320Z,0.60
2023-02-03T13:34:41.255Z,0.77
2023-02-03T13:37:48.598Z,0.63
2023-02-03T13:40:38.280Z,0.77
2023-02-03T13:43:07.807Z,0.60
2023-02-03T13:45:43.350Z,0.60
2023-02-03T13:48:25.882Z,0.70
2023-02-03T13:51:06.230Z,0.87
2023-02-03T13:53:39.107Z,0.70
2023-02-03T13:56:10.506Z,0.87
2023-02-03T13:58:41.426Z,0.73
2023-02-03T14:01:31.730Z,0.67
2023-02-03T14:03:59.688Z,0.80
2023-02-03T14:06:40.641Z,0.50
2023-02-03T14:09:33.027Z,0.60
2023-02-03T14:12:20.511Z,0.87
2023-02-03T14:14:51.177Z,0.70
2023-02-03T14:17:37.093Z,1.00
2023-02-03T14:20:05.810Z,0.97
2023-02-03T14:22:33.593Z,1.20
2023-02-03T14:25:06.167Z,0.70
2023-02-03T14:27:36.983Z,0.70
2023-02-03T14:30:15.308Z,0.70
2023-02-03T14:32:53.198Z,0.50
2023-02-03T14:35:23.053Z,0.70
2023-02-03T14:37:58.776Z,0.57
2023-02-03T14:40:58.390Z,0.50
2023-02-03T14:43:40.646Z,0.60
2023-02-03T14:46:27.719Z,0.60
2023-02-03T14:49:20.402Z,0.40
2023-02-03T14:52:02.168Z,0.80
2023-02-03T14:54:35.879Z,0.70
2023-02-03T14:57:46.390Z,0.50
2023-02-03T15:00:24.800Z,0.30
2023-02-03T15:03:08.815Z,0.57
2023-02-03T15:05:41.144Z,0.47
2023-02-03T15:08:30.646Z,0.50
2023-02-03T15:10:58.572Z,0.50
2023-02-03T15:13:32.846Z,0.40
2023-02-03T15:16:05.728Z,0.50
2023-02-03T15:18:37.452Z,0.40
2023-02-03T15:21:05.554Z,0.60
2023-02-03T15:23:44.284Z,0.40
2023-02-03T15:26:17.262Z,0.50
2023-02-03T15:28:45.087Z,0.40
2023-02-03T15:31:21.608Z,0.50
2023-02-03T15:33:51.090Z,0.30
2023-02-03T15:36:28.113Z,0.30
2023-02-03T15:38:59.745Z,0.30
2023-02-03T15:41:27.654Z,0.50
2023-02-03T15:43:57.687Z,0.20
2023-02-03T15:46:53.018Z,0.50
2023-02-03T15:49:22.413Z,0.43
2023-02-03T15:51:52.682Z,0.40
2023-02-03T15:54:24.137Z,0.30
2023-02-03T15:56:58.135Z,0.70
2023-02-03T15:59:30.416Z,0.30
2023-02-03T16:01:58.466Z,0.40
2023-02-03T16:04:26.361Z,0.83
2023-02-03T16:06:55.046Z,1.10
2023-02-03T16:09:49.182Z,0.70
2023-02-03T16:12:18.890Z,0.80
2023-02-03T16:14:47.472Z,0.60
2023-02-03T16:17:22.689Z,0.60
2023-02-03T16:19:52.531Z,0.53
2023-02-03T16:22:32.274Z,0.40
2023-02-03T16:25:16.709Z,0.60
2023-02-03T16:28:16.006Z,0.80
2023-02-03T16:31:22.288Z,0.50
2023-02-03T16:34:09.768Z,0.50
2023-02-03T16:37:00.695Z,0.57
2023-02-03T16:39:47.055Z,0.60
2023-02-03T16:42:38.563Z,0.70
2023-02-03T16:45:35.007Z,0.60
2023-02-03T16:48:22.186Z,0.50
2023-02-03T16:50:59.308Z,0.70
2023-02-03T16:53:33.792Z,0.83
2023-02-03T16:56:03.176Z,0.50
2023-02-03T16:58:31.162Z,0.70
2023-02-03T17:01:00.409Z,0.53
2023-02-03T17:03:28.766Z,0.60
2023-02-03T17:05:57.105Z,0.53
2023-02-03T17:08:26.010Z,0.40
2023-02-03T17:10:53.860Z,0.57
2023-02-03T17:13:22.966Z,0.30
2023-02-03T17:15:53.726Z,0.60
2023-02-03T17:18:21.671Z,0.70
2023-02-03T17:20:49.667Z,0.73
2023-02-03T17:23:17.802Z,0.50
2023-02-03T17:25:46.697Z,0.43
2023-02-03T17:28:15.076Z,0.53
2023-02-03T17:30:43.142Z,0.40
2023-02-03T17:33:13.618Z,0.67
2023-02-03T17:35:42.686Z,0.50
2023-02-03T17:38:11.394Z,0.40
2023-02-03T17:54:36.703Z,0.47
2023-02-03T17:57:04.601Z,0.60
2023-02-03T17:59:32.427Z,0.80
2023-02-03T18:02:00.254Z,0.40
2023-02-03T18:04:28.229Z,0.60
2023-02-03T18:06:56.111Z,0.50
2023-02-03T18:09:25.020Z,0.90
2023-02-03T18:11:52.864Z,1.50
2023-02-03T18:14:20.662Z,0.67
2023-02-03T18:16:48.572Z,0.90
2023-02-03T18:19:16.575Z,0.70
2023-02-03T18:21:44.781Z,0.40
2023-02-03T18:24:13.557Z,0.40
2023-02-03T18:26:52.632Z,0.60
2023-02-03T18:29:20.640Z,0.60
2023-02-03T18:31:49.243Z,0.70
2023-02-03T18:34:17.724Z,0.53
2023-02-03T18:36:46.060Z,0.87
2023-02-03T18:39:15.775Z,0.60
2023-02-03T18:41:43.653Z,0.80
2023-02-03T18:44:11.634Z,0.90
2023-02-03T18:46:39.527Z,0.70
2023-02-03T18:49:08.914Z,0.70
2023-02-03T18:51:36.775Z,0.70
2023-02-03T18:54:05.064Z,0.80
2023-02-03T18:56:36.308Z,1.03
2023-02-03T18:59:10.064Z,0.53
2023-02-03T19:01:38.307Z,0.60
2023-02-03T19:04:06.229Z,0.60
2023-02-03T19:06:34.736Z,0.57
2023-02-03T19:09:03.375Z,0.70
2023-02-03T19:11:31.383Z,0.40
2023-02-03T19:13:59.117Z,0.60
2023-02-03T19:16:26.987Z,0.83
2023-02-03T19:18:54.844Z,0.60
2023-02-03T19:21:23.112Z,0.70
2023-02-03T19:23:50.943Z,0.50
2023-02-03T19:26:18.842Z,0.47
2023-02-03T19:28:46.828Z,0.50
2023-02-03T19:31:16.263Z,0.60
2023-02-03T19:33:44.290Z,0.70
2023-02-03T19:36:12.422Z,0.60
2023-02-03T19:38:40.218Z,0.67
2023-02-03T19:41:09.305Z,0.60
2023-02-03T19:43:40.645Z,0.60
2023-02-03T19:46:09.332Z,0.63
2023-02-03T19:48:37.315Z,0.90
2023-02-03T19:51:05.606Z,0.67
2023-02-03T19:53:34.224Z,0.70
2023-02-03T19:56:04.971Z,0.77
2023-02-03T19:58:32.933Z,0.50
2023-02-03T20:01:00.639Z,0.40
2023-02-03T20:03:28.583Z,0.67
2023-02-03T20:05:56.525Z,0.60
2023-02-03T20:08:24.357Z,0.60
2023-02-03T20:10:53.058Z,0.70
2023-02-03T20:13:25.857Z,0.50
2023-02-03T20:15:53.696Z,0.67
2023-02-03T20:18:21.664Z,0.50
2023-02-03T20:20:57.424Z,0.70
2023-02-03T20:23:25.493Z,0.50
2023-02-03T20:25:56.658Z,0.60
2023-02-03T20:28:25.593Z,0.43
2023-02-03T20:30:54.128Z,0.40
2023-02-03T20:33:22.182Z,0.57
2023-02-03T20:35:50.272Z,0.50
2023-02-03T20:38:18.165Z,0.53
2023-02-03T20:40:47.128Z,0.30
2023-02-03T20:43:24.532Z,0.50
2023-02-03T20:45:54.374Z,0.50
2023-02-03T20:48:26.801Z,0.50
2023-02-03T20:50:54.783Z,0.60
2023-02-03T20:53:24.096Z,0.47
2023-02-03T20:55:52.048Z,0.70
2023-02-03T20:58:22.281Z,0.60
2023-02-03T21:00:50.674Z,1.13
2023-02-03T21:03:37.977Z,1.17
2023-02-03T21:06:19.341Z,0.63
2023-02-03T21:08:47.660Z,0.60
2023-02-03T21:11:22.163Z,0.60
2023-02-03T21:13:50.980Z,0.47
2023-02-03T21:16:22.765Z,0.77
2023-02-03T21:18:56.021Z,0.47
2023-02-03T21:21:41.397Z,0.40
2023-02-03T21:24:18.402Z,0.60
2023-02-03T21:26:46.435Z,0.57
2023-02-03T21:29:21.015Z,0.60
2023-02-03T21:31:49.065Z,0.80
2023-02-03T21:34:32.654Z,0.60
2023-02-03T21:37:08.445Z,0.63
2023-02-03T21:39:36.367Z,0.50
2023-02-03T21:42:18.854Z,0.60
2023-02-03T21:44:46.727Z,0.30
2023-02-03T21:47:17.977Z,0.67
2023-02-03T21:49:46.338Z,0.50
2023-02-03T21:52:14.640Z,0.60
2023-02-03T21:54:44.395Z,0.43
2023-02-03T21:57:16.977Z,0.70
2023-02-03T21:59:51.018Z,0.50
2023-02-03T22:02:54.612Z,0.50
2023-02-03T22:05:22.650Z,0.60
2023-02-03T22:07:51.307Z,0.47
2023-02-03T22:10:23.925Z,0.53
2023-02-03T22:12:51.709Z,0.50
2023-02-03T22:15:19.514Z,0.40
2023-02-03T22:17:49.350Z,0.40
2023-02-03T22:20:17.284Z,0.60
2023-02-03T22:22:45.134Z,0.60
2023-02-03T22:25:12.975Z,0.57
2023-02-03T22:27:40.857Z,0.50
2023-02-03T22:30:13.504Z,0.50
2023-02-03T22:32:41.330Z,0.70
2023-02-03T22:35:12.198Z,0.50
2023-02-03T22:37:40.085Z,0.47
2023-02-03T22:40:08.241Z,0.43
2023-02-03T22:42:36.076Z,0.50
2023-02-03T22:45:04.082Z,0.50
2023-02-03T22:47:31.908Z,0.40
2023-02-03T22:49:59.745Z,0.50
2023-02-03T22:52:27.547Z,0.40
2023-02-03T22:54:55.401Z,0.60
2023-02-03T22:57:23.241Z,0.70
2023-02-03T22:59:51.355Z,0.70
2023-02-03T23:02:19.288Z,0.77
2023-02-03T23:04:47.493Z,0.67
2023-02-03T23:07:15.273Z,1.33
2023-02-03T23:09:43.146Z,0.60
2023-02-03T23:12:11.032Z,0.40
2023-02-03T23:14:38.916Z,0.57
2023-02-03T23:17:06.830Z,0.50
2023-02-03T23:19:34.683Z,0.60
2023-02-03T23:22:02.455Z,0.63
2023-02-03T23:24:30.220Z,0.60
2023-02-03T23:26:57.984Z,0.50
2023-02-03T23:29:25.758Z,0.60
2023-02-03T23:31:58.246Z,0.53
2023-02-03T23:34:44.777Z,0.60
2023-02-03T23:37:12.491Z,0.60
2023-02-03T23:39:43.331Z,0.80
2023-02-03T23:42:11.088Z,0.67
2023-02-03T23:44:38.884Z,0.60
2023-02-03T23:47:06.663Z,0.63
2023-02-03T23:49:34.540Z,0.60
2023-02-03T23:52:02.355Z,0.63
2023-02-03T23:54:30.334Z,0.93
2023-02-03T23:56:58.226Z,0.70
2023-02-03T23:59:26.058Z,0.67
